sensor_id;sensor_type;location;lat;lon;timestamp;P1;durP1;ratioP1;P2;durP2;ratioP2
69047;SDS011;56119;50.118;8.642;2023-05-23T00:01:56;44.40;;;34.85;;
69047;SDS011;56119;50.118;8.642;2023-05-23T00:04:22;48.58;;;36.10;;
69047;SDS011;56119;50.118;8.642;2023-05-23T00:06:50;50.30;;;35.58;;
69047;SDS011;56119;50.118;8.642;2023-05-23T00:09:17;46.85;;;34.80;;
69047;SDS011;56119;50.118;8.642;2023-05-23T00:11:43;46.28;;;33.75;;
69047;SDS011;56119;50.118;8.642;2023-05-23T00:14:10;44.20;;;32.17;;
69047;SDS011;56119;50.118;8.642;2023-05-23T00:16:37;40.58;;;31.55;;
69047;SDS011;56119;50.118;8.642;2023-05-23T00:19:05;40.80;;;32.40;;
69047;SDS011;56119;50.118;8.642;2023-05-23T00:21:31;39.67;;;31.10;;
69047;SDS011;56119;50.118;8.642;2023-05-23T00:23:57;38.13;;;29.17;;
69047;SDS011;56119;50.118;8.642;2023-05-23T00:26:23;35.22;;;27.13;;
69047;SDS011;56119;50.118;8.642;2023-05-23T00:28:53;34.63;;;27.95;;
69047;SDS011;56119;50.118;8.642;2023-05-23T00:31:20;39.70;;;29.55;;
69047;SDS011;56119;50.118;8.642;2023-05-23T00:33:46;36.75;;;27.92;;
69047;SDS011;56119;50.118;8.642;2023-05-23T00:36:12;37.50;;;30.02;;
69047;SDS011;56119;50.118;8.642;2023-05-23T00:38:38;36.17;;;29.77;;
69047;SDS011;56119;50.118;8.642;2023-05-23T00:41:04;37.40;;;29.63;;
69047;SDS011;56119;50.118;8.642;2023-05-23T00:43:30;34.80;;;28.75;;
69047;SDS011;56119;50.118;8.642;2023-05-23T00:45:56;32.90;;;28.15;;
69047;SDS011;56119;50.118;8.642;2023-05-23T00:48:25;36.58;;;28.23;;
69047;SDS011;56119;50.118;8.642;2023-05-23T00:50:52;36.42;;;27.40;;
69047;SDS011;56119;50.118;8.642;2023-05-23T00:53:19;32.88;;;25.58;;
69047;SDS011;56119;50.118;8.642;2023-05-23T00:55:45;33.70;;;27.38;;
69047;SDS011;56119;50.118;8.642;2023-05-23T00:58:11;34.92;;;27.63;;
69047;SDS011;56119;50.118;8.642;2023-05-23T01:00:39;31.35;;;26.67;;
69047;SDS011;56119;50.118;8.642;2023-05-23T01:03:06;31.42;;;27.52;;
69047;SDS011;56119;50.118;8.642;2023-05-23T01:05:32;36.13;;;26.90;;
69047;SDS011;56119;50.118;8.642;2023-05-23T01:07:58;31.48;;;26.73;;
69047;SDS011;56119;50.118;8.642;2023-05-23T01:10:27;35.90;;;28.77;;
69047;SDS011;56119;50.118;8.642;2023-05-23T01:15:20;34.97;;;27.45;;
69047;SDS011;56119;50.118;8.642;2023-05-23T01:18:01;39.15;;;29.65;;
69047;SDS011;56119;50.118;8.642;2023-05-23T01:20:42;35.78;;;29.23;;
69047;SDS011;56119;50.118;8.642;2023-05-23T01:28:23;38.17;;;29.48;;
69047;SDS011;56119;50.118;8.642;2023-05-23T01:30:51;33.25;;;27.50;;
69047;SDS011;56119;50.118;8.642;2023-05-23T01:33:18;32.45;;;26.27;;
69047;SDS011;56119;50.118;8.642;2023-05-23T01:35:45;34.35;;;26.63;;
69047;SDS011;56119;50.118;8.642;2023-05-23T01:38:11;33.47;;;27.45;;
69047;SDS011;56119;50.118;8.642;2023-05-23T01:40:37;36.33;;;27.85;;
69047;SDS011;56119;50.118;8.642;2023-05-23T01:43:03;30.95;;;25.30;;
69047;SDS011;56119;50.118;8.642;2023-05-23T01:45:29;34.03;;;27.52;;
69047;SDS011;56119;50.118;8.642;2023-05-23T01:47:56;35.30;;;27.80;;
69047;SDS011;56119;50.118;8.642;2023-05-23T01:50:22;31.10;;;26.98;;
69047;SDS011;56119;50.118;8.642;2023-05-23T01:52:49;28.88;;;24.77;;
69047;SDS011;56119;50.118;8.642;2023-05-23T01:55:16;30.73;;;26.05;;
69047;SDS011;56119;50.118;8.642;2023-05-23T01:57:46;32.67;;;28.55;;
69047;SDS011;56119;50.118;8.642;2023-05-23T02:00:15;33.55;;;28.10;;
69047;SDS011;56119;50.118;8.642;2023-05-23T02:02:41;30.52;;;26.42;;
69047;SDS011;56119;50.118;8.642;2023-05-23T02:05:08;29.02;;;25.60;;
69047;SDS011;56119;50.118;8.642;2023-05-23T02:07:35;36.63;;;26.95;;
69047;SDS011;56119;50.118;8.642;2023-05-23T02:10:01;31.40;;;26.00;;
69047;SDS011;56119;50.118;8.642;2023-05-23T02:12:27;30.45;;;26.60;;
69047;SDS011;56119;50.118;8.642;2023-05-23T02:14:53;32.30;;;25.90;;
69047;SDS011;56119;50.118;8.642;2023-05-23T02:17:20;32.72;;;26.52;;
69047;SDS011;56119;50.118;8.642;2023-05-23T02:19:49;27.15;;;24.05;;
69047;SDS011;56119;50.118;8.642;2023-05-23T02:22:15;25.85;;;22.83;;
69047;SDS011;56119;50.118;8.642;2023-05-23T02:24:41;29.33;;;25.35;;
69047;SDS011;56119;50.118;8.642;2023-05-23T02:27:07;28.15;;;25.15;;
69047;SDS011;56119;50.118;8.642;2023-05-23T02:29:33;29.17;;;23.77;;
69047;SDS011;56119;50.118;8.642;2023-05-23T02:31:59;26.25;;;22.92;;
69047;SDS011;56119;50.118;8.642;2023-05-23T02:34:25;31.95;;;25.90;;
69047;SDS011;56119;50.118;8.642;2023-05-23T02:36:51;28.20;;;24.95;;
69047;SDS011;56119;50.118;8.642;2023-05-23T02:39:17;27.70;;;24.13;;
69047;SDS011;56119;50.118;8.642;2023-05-23T02:41:43;27.58;;;24.30;;
69047;SDS011;56119;50.118;8.642;2023-05-23T02:44:09;26.25;;;21.90;;
69047;SDS011;56119;50.118;8.642;2023-05-23T02:46:35;27.45;;;23.40;;
69047;SDS011;56119;50.118;8.642;2023-05-23T02:49:01;26.63;;;22.15;;
69047;SDS011;56119;50.118;8.642;2023-05-23T02:51:27;22.65;;;19.40;;
69047;SDS011;56119;50.118;8.642;2023-05-23T02:53:53;21.92;;;19.58;;
69047;SDS011;56119;50.118;8.642;2023-05-23T02:56:19;21.60;;;19.25;;
69047;SDS011;56119;50.118;8.642;2023-05-23T02:58:46;22.00;;;18.55;;
69047;SDS011;56119;50.118;8.642;2023-05-23T03:01:12;22.95;;;19.20;;
69047;SDS011;56119;50.118;8.642;2023-05-23T03:03:38;21.15;;;18.88;;
69047;SDS011;56119;50.118;8.642;2023-05-23T03:06:05;21.65;;;18.42;;
69047;SDS011;56119;50.118;8.642;2023-05-23T03:08:34;21.13;;;18.10;;
69047;SDS011;56119;50.118;8.642;2023-05-23T03:11:00;20.58;;;18.08;;
69047;SDS011;56119;50.118;8.642;2023-05-23T03:13:27;26.08;;;19.05;;
69047;SDS011;56119;50.118;8.642;2023-05-23T03:15:53;20.60;;;17.95;;
69047;SDS011;56119;50.118;8.642;2023-05-23T03:18:19;18.85;;;15.98;;
69047;SDS011;56119;50.118;8.642;2023-05-23T03:20:45;21.40;;;17.77;;
69047;SDS011;56119;50.118;8.642;2023-05-23T03:23:11;19.45;;;16.02;;
69047;SDS011;56119;50.118;8.642;2023-05-23T03:25:37;20.95;;;17.27;;
69047;SDS011;56119;50.118;8.642;2023-05-23T03:28:03;20.17;;;18.02;;
69047;SDS011;56119;50.118;8.642;2023-05-23T03:30:28;21.05;;;17.58;;
69047;SDS011;56119;50.118;8.642;2023-05-23T03:32:54;21.05;;;18.17;;
69047;SDS011;56119;50.118;8.642;2023-05-23T03:35:20;21.17;;;18.17;;
69047;SDS011;56119;50.118;8.642;2023-05-23T03:37:46;24.52;;;20.25;;
69047;SDS011;56119;50.118;8.642;2023-05-23T03:40:12;20.23;;;18.15;;
69047;SDS011;56119;50.118;8.642;2023-05-23T03:42:38;21.40;;;18.38;;
69047;SDS011;56119;50.118;8.642;2023-05-23T03:45:04;22.98;;;19.98;;
69047;SDS011;56119;50.118;8.642;2023-05-23T03:47:31;22.73;;;19.67;;
69047;SDS011;56119;50.118;8.642;2023-05-23T03:49:56;27.58;;;24.48;;
69047;SDS011;56119;50.118;8.642;2023-05-23T03:52:22;27.27;;;23.90;;
69047;SDS011;56119;50.118;8.642;2023-05-23T03:54:48;23.90;;;21.45;;
69047;SDS011;56119;50.118;8.642;2023-05-23T03:57:14;23.23;;;20.65;;
69047;SDS011;56119;50.118;8.642;2023-05-23T03:59:40;21.35;;;18.73;;
69047;SDS011;56119;50.118;8.642;2023-05-23T04:02:06;20.92;;;18.70;;
69047;SDS011;56119;50.118;8.642;2023-05-23T04:04:32;21.60;;;19.30;;
69047;SDS011;56119;50.118;8.642;2023-05-23T04:06:59;22.58;;;17.83;;
69047;SDS011;56119;50.118;8.642;2023-05-23T04:09:25;18.38;;;16.35;;
69047;SDS011;56119;50.118;8.642;2023-05-23T04:11:51;20.02;;;16.40;;
69047;SDS011;56119;50.118;8.642;2023-05-23T04:14:17;17.58;;;15.60;;
69047;SDS011;56119;50.118;8.642;2023-05-23T04:16:46;18.83;;;15.70;;
69047;SDS011;56119;50.118;8.642;2023-05-23T04:19:12;18.50;;;16.42;;
69047;SDS011;56119;50.118;8.642;2023-05-23T04:21:38;17.77;;;15.20;;
69047;SDS011;56119;50.118;8.642;2023-05-23T04:24:04;16.52;;;14.65;;
69047;SDS011;56119;50.118;8.642;2023-05-23T04:26:31;15.63;;;13.90;;
69047;SDS011;56119;50.118;8.642;2023-05-23T04:28:57;16.05;;;14.15;;
69047;SDS011;56119;50.118;8.642;2023-05-23T04:31:23;15.88;;;13.75;;
69047;SDS011;56119;50.118;8.642;2023-05-23T04:33:49;16.17;;;14.20;;
69047;SDS011;56119;50.118;8.642;2023-05-23T04:36:15;17.92;;;15.55;;
69047;SDS011;56119;50.118;8.642;2023-05-23T04:38:42;18.08;;;16.10;;
69047;SDS011;56119;50.118;8.642;2023-05-23T04:41:08;18.85;;;15.65;;
69047;SDS011;56119;50.118;8.642;2023-05-23T04:43:34;20.45;;;16.85;;
69047;SDS011;56119;50.118;8.642;2023-05-23T04:46:06;17.83;;;14.75;;
69047;SDS011;56119;50.118;8.642;2023-05-23T04:48:32;19.35;;;15.95;;
69047;SDS011;56119;50.118;8.642;2023-05-23T04:51:00;19.88;;;17.00;;
69047;SDS011;56119;50.118;8.642;2023-05-23T04:53:30;18.50;;;15.88;;
69047;SDS011;56119;50.118;8.642;2023-05-23T04:55:55;19.42;;;16.10;;
69047;SDS011;56119;50.118;8.642;2023-05-23T04:58:21;18.23;;;16.10;;
69047;SDS011;56119;50.118;8.642;2023-05-23T05:00:47;23.38;;;19.02;;
69047;SDS011;56119;50.118;8.642;2023-05-23T05:03:13;22.27;;;18.48;;
69047;SDS011;56119;50.118;8.642;2023-05-23T05:05:40;22.58;;;19.73;;
69047;SDS011;56119;50.118;8.642;2023-05-23T05:08:06;23.92;;;20.55;;
69047;SDS011;56119;50.118;8.642;2023-05-23T05:10:32;24.35;;;19.67;;
69047;SDS011;56119;50.118;8.642;2023-05-23T05:12:58;24.50;;;19.38;;
69047;SDS011;56119;50.118;8.642;2023-05-23T05:15:23;22.60;;;19.38;;
69047;SDS011;56119;50.118;8.642;2023-05-23T05:17:49;24.83;;;19.83;;
69047;SDS011;56119;50.118;8.642;2023-05-23T05:20:15;24.10;;;21.27;;
69047;SDS011;56119;50.118;8.642;2023-05-23T05:22:41;22.92;;;19.88;;
69047;SDS011;56119;50.118;8.642;2023-05-23T05:25:09;23.63;;;20.23;;
69047;SDS011;56119;50.118;8.642;2023-05-23T05:27:35;21.40;;;18.33;;
69047;SDS011;56119;50.118;8.642;2023-05-23T05:30:07;19.58;;;17.58;;
69047;SDS011;56119;50.118;8.642;2023-05-23T05:32:34;21.77;;;16.88;;
69047;SDS011;56119;50.118;8.642;2023-05-23T05:35:00;20.35;;;18.25;;
69047;SDS011;56119;50.118;8.642;2023-05-23T05:37:26;17.63;;;15.73;;
69047;SDS011;56119;50.118;8.642;2023-05-23T05:39:52;17.67;;;15.77;;
69047;SDS011;56119;50.118;8.642;2023-05-23T05:42:19;19.38;;;17.17;;
69047;SDS011;56119;50.118;8.642;2023-05-23T05:44:45;19.33;;;16.80;;
69047;SDS011;56119;50.118;8.642;2023-05-23T05:47:12;18.05;;;15.52;;
69047;SDS011;56119;50.118;8.642;2023-05-23T05:49:38;18.80;;;15.45;;
69047;SDS011;56119;50.118;8.642;2023-05-23T05:52:05;18.08;;;14.85;;
69047;SDS011;56119;50.118;8.642;2023-05-23T05:54:31;16.45;;;14.35;;
69047;SDS011;56119;50.118;8.642;2023-05-23T05:56:57;15.23;;;13.52;;
69047;SDS011;56119;50.118;8.642;2023-05-23T05:59:23;15.68;;;13.23;;
69047;SDS011;56119;50.118;8.642;2023-05-23T06:01:49;17.92;;;12.52;;
69047;SDS011;56119;50.118;8.642;2023-05-23T06:04:15;13.25;;;11.38;;
69047;SDS011;56119;50.118;8.642;2023-05-23T06:06:41;12.80;;;11.20;;
69047;SDS011;56119;50.118;8.642;2023-05-23T06:09:08;13.20;;;11.38;;
69047;SDS011;56119;50.118;8.642;2023-05-23T06:11:34;15.10;;;11.18;;
69047;SDS011;56119;50.118;8.642;2023-05-23T06:14:03;12.82;;;11.38;;
69047;SDS011;56119;50.118;8.642;2023-05-23T06:16:29;13.23;;;11.02;;
69047;SDS011;56119;50.118;8.642;2023-05-23T06:18:55;13.82;;;12.13;;
69047;SDS011;56119;50.118;8.642;2023-05-23T06:21:21;13.75;;;10.63;;
69047;SDS011;56119;50.118;8.642;2023-05-23T06:23:47;12.88;;;10.23;;
69047;SDS011;56119;50.118;8.642;2023-05-23T06:26:13;11.02;;;9.93;;
69047;SDS011;56119;50.118;8.642;2023-05-23T06:28:39;11.57;;;10.10;;
69047;SDS011;56119;50.118;8.642;2023-05-23T06:31:05;11.82;;;9.68;;
69047;SDS011;56119;50.118;8.642;2023-05-23T06:33:33;11.20;;;9.73;;
69047;SDS011;56119;50.118;8.642;2023-05-23T06:36:00;9.07;;;8.18;;
69047;SDS011;56119;50.118;8.642;2023-05-23T06:38:26;10.02;;;7.97;;
69047;SDS011;56119;50.118;8.642;2023-05-23T06:40:53;10.48;;;8.73;;
69047;SDS011;56119;50.118;8.642;2023-05-23T06:43:22;9.82;;;7.03;;
69047;SDS011;56119;50.118;8.642;2023-05-23T06:45:48;10.07;;;7.18;;
69047;SDS011;56119;50.118;8.642;2023-05-23T06:48:14;8.50;;;7.07;;
69047;SDS011;56119;50.118;8.642;2023-05-23T06:50:40;9.30;;;7.80;;
69047;SDS011;56119;50.118;8.642;2023-05-23T06:53:06;8.55;;;7.38;;
69047;SDS011;56119;50.118;8.642;2023-05-23T06:55:32;7.28;;;6.15;;
69047;SDS011;56119;50.118;8.642;2023-05-23T06:57:58;9.20;;;7.07;;
69047;SDS011;56119;50.118;8.642;2023-05-23T07:00:24;7.50;;;6.70;;
69047;SDS011;56119;50.118;8.642;2023-05-23T07:02:50;6.80;;;6.10;;
69047;SDS011;56119;50.118;8.642;2023-05-23T07:05:16;9.60;;;5.95;;
69047;SDS011;56119;50.118;8.642;2023-05-23T07:07:42;7.75;;;6.03;;
69047;SDS011;56119;50.118;8.642;2023-05-23T07:10:09;8.30;;;6.15;;
69047;SDS011;56119;50.118;8.642;2023-05-23T07:12:35;6.03;;;5.40;;
69047;SDS011;56119;50.118;8.642;2023-05-23T07:15:01;5.95;;;5.35;;
69047;SDS011;56119;50.118;8.642;2023-05-23T07:17:27;5.63;;;4.88;;
69047;SDS011;56119;50.118;8.642;2023-05-23T07:19:54;7.78;;;5.35;;
69047;SDS011;56119;50.118;8.642;2023-05-23T07:22:20;6.47;;;5.80;;
69047;SDS011;56119;50.118;8.642;2023-05-23T07:24:46;6.53;;;5.45;;
69047;SDS011;56119;50.118;8.642;2023-05-23T07:27:12;7.88;;;6.05;;
69047;SDS011;56119;50.118;8.642;2023-05-23T07:29:38;7.68;;;5.85;;
69047;SDS011;56119;50.118;8.642;2023-05-23T07:32:05;6.95;;;5.95;;
69047;SDS011;56119;50.118;8.642;2023-05-23T07:34:31;7.20;;;6.18;;
69047;SDS011;56119;50.118;8.642;2023-05-23T07:36:57;6.60;;;5.85;;
69047;SDS011;56119;50.118;8.642;2023-05-23T07:39:23;9.63;;;8.73;;
69047;SDS011;56119;50.118;8.642;2023-05-23T07:41:49;10.35;;;8.88;;
69047;SDS011;56119;50.118;8.642;2023-05-23T07:44:17;9.40;;;8.43;;
69047;SDS011;56119;50.118;8.642;2023-05-23T07:46:43;14.77;;;9.43;;
69047;SDS011;56119;50.118;8.642;2023-05-23T07:49:09;10.63;;;9.52;;
69047;SDS011;56119;50.118;8.642;2023-05-23T07:51:35;12.48;;;9.48;;
69047;SDS011;56119;50.118;8.642;2023-05-23T07:54:01;10.75;;;9.65;;
69047;SDS011;56119;50.118;8.642;2023-05-23T07:56:27;10.40;;;8.50;;
69047;SDS011;56119;50.118;8.642;2023-05-23T07:58:53;8.77;;;7.88;;
69047;SDS011;56119;50.118;8.642;2023-05-23T08:01:19;7.95;;;6.57;;
69047;SDS011;56119;50.118;8.642;2023-05-23T08:03:46;7.13;;;6.38;;
69047;SDS011;56119;50.118;8.642;2023-05-23T08:06:12;9.77;;;7.57;;
69047;SDS011;56119;50.118;8.642;2023-05-23T08:08:38;9.43;;;6.45;;
69047;SDS011;56119;50.118;8.642;2023-05-23T08:11:04;8.52;;;5.72;;
69047;SDS011;56119;50.118;8.642;2023-05-23T08:13:30;7.30;;;6.32;;
69047;SDS011;56119;50.118;8.642;2023-05-23T08:15:56;10.98;;;6.60;;
69047;SDS011;56119;50.118;8.642;2023-05-23T08:18:22;6.45;;;5.70;;
69047;SDS011;56119;50.118;8.642;2023-05-23T08:20:48;7.07;;;6.38;;
69047;SDS011;56119;50.118;8.642;2023-05-23T08:23:14;7.22;;;5.18;;
69047;SDS011;56119;50.118;8.642;2023-05-23T08:25:41;8.35;;;5.30;;
69047;SDS011;56119;50.118;8.642;2023-05-23T08:28:07;6.78;;;5.65;;
69047;SDS011;56119;50.118;8.642;2023-05-23T08:30:33;9.10;;;5.50;;
69047;SDS011;56119;50.118;8.642;2023-05-23T08:33:00;6.20;;;4.75;;
69047;SDS011;56119;50.118;8.642;2023-05-23T08:35:28;5.68;;;4.43;;
69047;SDS011;56119;50.118;8.642;2023-05-23T08:37:59;5.32;;;4.07;;
69047;SDS011;56119;50.118;8.642;2023-05-23T08:40:25;7.53;;;4.97;;
69047;SDS011;56119;50.118;8.642;2023-05-23T08:42:54;5.57;;;5.07;;
69047;SDS011;56119;50.118;8.642;2023-05-23T08:45:20;5.72;;;4.93;;
69047;SDS011;56119;50.118;8.642;2023-05-23T08:47:46;5.95;;;5.03;;
69047;SDS011;56119;50.118;8.642;2023-05-23T08:50:13;4.47;;;3.38;;
69047;SDS011;56119;50.118;8.642;2023-05-23T08:52:43;4.50;;;4.00;;
69047;SDS011;56119;50.118;8.642;2023-05-23T08:55:12;5.50;;;3.97;;
69047;SDS011;56119;50.118;8.642;2023-05-23T08:57:39;4.35;;;3.70;;
69047;SDS011;56119;50.118;8.642;2023-05-23T09:00:10;3.53;;;3.22;;
69047;SDS011;56119;50.118;8.642;2023-05-23T09:02:39;4.18;;;3.42;;
69047;SDS011;56119;50.118;8.642;2023-05-23T09:05:05;5.63;;;3.83;;
69047;SDS011;56119;50.118;8.642;2023-05-23T09:07:33;4.07;;;3.30;;
69047;SDS011;56119;50.118;8.642;2023-05-23T09:09:59;3.97;;;3.60;;
69047;SDS011;56119;50.118;8.642;2023-05-23T09:12:25;4.88;;;3.70;;
69047;SDS011;56119;50.118;8.642;2023-05-23T09:14:51;4.15;;;3.75;;
69047;SDS011;56119;50.118;8.642;2023-05-23T09:17:17;4.55;;;3.83;;
69047;SDS011;56119;50.118;8.642;2023-05-23T09:19:43;7.00;;;4.72;;
69047;SDS011;56119;50.118;8.642;2023-05-23T09:22:11;6.75;;;3.92;;
69047;SDS011;56119;50.118;8.642;2023-05-23T09:24:37;4.60;;;3.80;;
69047;SDS011;56119;50.118;8.642;2023-05-23T09:27:06;4.85;;;4.35;;
69047;SDS011;56119;50.118;8.642;2023-05-23T09:29:36;5.40;;;4.18;;
69047;SDS011;56119;50.118;8.642;2023-05-23T09:32:10;4.72;;;4.20;;
69047;SDS011;56119;50.118;8.642;2023-05-23T09:34:39;4.03;;;3.63;;
69047;SDS011;56119;50.118;8.642;2023-05-23T09:37:05;4.30;;;3.90;;
69047;SDS011;56119;50.118;8.642;2023-05-23T09:39:35;4.85;;;4.05;;
69047;SDS011;56119;50.118;8.642;2023-05-23T09:42:01;4.85;;;4.00;;
69047;SDS011;56119;50.118;8.642;2023-05-23T09:44:27;4.88;;;4.18;;
69047;SDS011;56119;50.118;8.642;2023-05-23T09:46:54;5.80;;;4.40;;
69047;SDS011;56119;50.118;8.642;2023-05-23T09:49:20;5.22;;;4.43;;
69047;SDS011;56119;50.118;8.642;2023-05-23T09:51:58;4.93;;;4.30;;
69047;SDS011;56119;50.118;8.642;2023-05-23T09:54:25;4.28;;;3.88;;
69047;SDS011;56119;50.118;8.642;2023-05-23T09:56:51;5.60;;;3.83;;
69047;SDS011;56119;50.118;8.642;2023-05-23T09:59:20;4.90;;;3.38;;
69047;SDS011;56119;50.118;8.642;2023-05-23T10:01:48;4.18;;;3.70;;
69047;SDS011;56119;50.118;8.642;2023-05-23T10:04:18;4.05;;;3.40;;
69047;SDS011;56119;50.118;8.642;2023-05-23T10:06:49;6.00;;;4.15;;
69047;SDS011;56119;50.118;8.642;2023-05-23T10:09:19;5.95;;;3.90;;
69047;SDS011;56119;50.118;8.642;2023-05-23T10:14:24;3.95;;;3.50;;
69047;SDS011;56119;50.118;8.642;2023-05-23T10:16:58;4.85;;;3.42;;
69047;SDS011;56119;50.118;8.642;2023-05-23T10:19:33;4.28;;;3.88;;
69047;SDS011;56119;50.118;8.642;2023-05-23T10:22:02;5.15;;;4.07;;
69047;SDS011;56119;50.118;8.642;2023-05-23T10:24:28;5.85;;;3.97;;
69047;SDS011;56119;50.118;8.642;2023-05-23T10:26:54;5.85;;;3.90;;
69047;SDS011;56119;50.118;8.642;2023-05-23T10:29:21;4.70;;;3.97;;
69047;SDS011;56119;50.118;8.642;2023-05-23T10:31:47;6.97;;;4.15;;
69047;SDS011;56119;50.118;8.642;2023-05-23T10:34:22;5.90;;;4.32;;
69047;SDS011;56119;50.118;8.642;2023-05-23T10:36:55;5.43;;;3.80;;
69047;SDS011;56119;50.118;8.642;2023-05-23T10:42:06;5.60;;;3.70;;
69047;SDS011;56119;50.118;8.642;2023-05-23T10:44:34;7.20;;;4.80;;
69047;SDS011;56119;50.118;8.642;2023-05-23T10:47:02;4.53;;;4.00;;
69047;SDS011;56119;50.118;8.642;2023-05-23T10:49:42;6.55;;;4.35;;
69047;SDS011;56119;50.118;8.642;2023-05-23T10:52:08;5.85;;;4.28;;
69047;SDS011;56119;50.118;8.642;2023-05-23T10:54:45;7.68;;;3.70;;
69047;SDS011;56119;50.118;8.642;2023-05-23T10:57:14;5.85;;;3.90;;
69047;SDS011;56119;50.118;8.642;2023-05-23T10:59:40;6.82;;;4.30;;
69047;SDS011;56119;50.118;8.642;2023-05-23T11:02:28;6.10;;;4.32;;
69047;SDS011;56119;50.118;8.642;2023-05-23T11:10:50;5.18;;;3.95;;
69047;SDS011;56119;50.118;8.642;2023-05-23T11:13:16;4.95;;;4.00;;
69047;SDS011;56119;50.118;8.642;2023-05-23T11:15:42;6.20;;;4.18;;
69047;SDS011;56119;50.118;8.642;2023-05-23T11:18:10;4.75;;;3.33;;
69047;SDS011;56119;50.118;8.642;2023-05-23T11:20:44;4.35;;;3.65;;
69047;SDS011;56119;50.118;8.642;2023-05-23T11:23:11;4.78;;;3.40;;
69047;SDS011;56119;50.118;8.642;2023-05-23T11:25:44;4.75;;;3.60;;
69047;SDS011;56119;50.118;8.642;2023-05-23T11:28:11;4.38;;;3.70;;
69047;SDS011;56119;50.118;8.642;2023-05-23T11:30:37;5.45;;;3.67;;
69047;SDS011;56119;50.118;8.642;2023-05-23T11:33:07;4.93;;;4.15;;
69047;SDS011;56119;50.118;8.642;2023-05-23T11:35:36;5.22;;;3.70;;
69047;SDS011;56119;50.118;8.642;2023-05-23T11:38:05;3.75;;;3.17;;
69047;SDS011;56119;50.118;8.642;2023-05-23T11:40:32;6.25;;;3.90;;
69047;SDS011;56119;50.118;8.642;2023-05-23T11:43:00;4.03;;;3.58;;
69047;SDS011;56119;50.118;8.642;2023-05-23T11:45:27;4.22;;;2.75;;
69047;SDS011;56119;50.118;8.642;2023-05-23T11:47:53;3.90;;;2.88;;
69047;SDS011;56119;50.118;8.642;2023-05-23T11:50:20;4.70;;;2.80;;
69047;SDS011;56119;50.118;8.642;2023-05-23T11:52:46;3.17;;;2.67;;
69047;SDS011;56119;50.118;8.642;2023-05-23T11:55:16;3.90;;;2.60;;
69047;SDS011;56119;50.118;8.642;2023-05-23T11:57:42;3.60;;;2.78;;
69047;SDS011;56119;50.118;8.642;2023-05-23T12:00:08;3.58;;;2.40;;
69047;SDS011;56119;50.118;8.642;2023-05-23T12:02:38;2.72;;;2.50;;
69047;SDS011;56119;50.118;8.642;2023-05-23T12:05:14;4.05;;;2.58;;
69047;SDS011;56119;50.118;8.642;2023-05-23T12:07:43;4.13;;;2.40;;
69047;SDS011;56119;50.118;8.642;2023-05-23T12:10:10;1.92;;;1.73;;
69047;SDS011;56119;50.118;8.642;2023-05-23T12:12:46;3.25;;;2.22;;
69047;SDS011;56119;50.118;8.642;2023-05-23T12:15:12;3.92;;;1.88;;
69047;SDS011;56119;50.118;8.642;2023-05-23T12:17:42;2.28;;;1.67;;
69047;SDS011;56119;50.118;8.642;2023-05-23T12:20:10;3.38;;;1.90;;
69047;SDS011;56119;50.118;8.642;2023-05-23T12:22:36;1.80;;;1.60;;
69047;SDS011;56119;50.118;8.642;2023-05-23T12:25:02;2.35;;;1.50;;
69047;SDS011;56119;50.118;8.642;2023-05-23T12:27:29;2.70;;;1.67;;
69047;SDS011;56119;50.118;8.642;2023-05-23T12:30:12;1.77;;;1.27;;
69047;SDS011;56119;50.118;8.642;2023-05-23T12:32:42;1.70;;;1.30;;
69047;SDS011;56119;50.118;8.642;2023-05-23T12:35:09;2.78;;;1.70;;
69047;SDS011;56119;50.118;8.642;2023-05-23T12:37:39;1.85;;;1.40;;
69047;SDS011;56119;50.118;8.642;2023-05-23T12:40:16;1.73;;;1.60;;
69047;SDS011;56119;50.118;8.642;2023-05-23T12:42:52;3.38;;;1.50;;
69047;SDS011;56119;50.118;8.642;2023-05-23T12:45:21;2.42;;;1.40;;
69047;SDS011;56119;50.118;8.642;2023-05-23T12:47:47;1.77;;;1.40;;
69047;SDS011;56119;50.118;8.642;2023-05-23T12:50:14;1.95;;;1.77;;
69047;SDS011;56119;50.118;8.642;2023-05-23T12:52:40;2.15;;;1.75;;
69047;SDS011;56119;50.118;8.642;2023-05-23T12:55:06;2.10;;;1.77;;
69047;SDS011;56119;50.118;8.642;2023-05-23T12:57:33;3.00;;;2.30;;
69047;SDS011;56119;50.118;8.642;2023-05-23T12:59:59;2.78;;;2.15;;
69047;SDS011;56119;50.118;8.642;2023-05-23T13:02:26;2.88;;;2.20;;
69047;SDS011;56119;50.118;8.642;2023-05-23T13:04:53;2.67;;;2.35;;
69047;SDS011;56119;50.118;8.642;2023-05-23T13:07:22;2.42;;;2.13;;
69047;SDS011;56119;50.118;8.642;2023-05-23T13:09:48;3.95;;;2.63;;
69047;SDS011;56119;50.118;8.642;2023-05-23T13:12:14;2.80;;;2.40;;
69047;SDS011;56119;50.118;8.642;2023-05-23T13:14:40;3.28;;;2.05;;
69047;SDS011;56119;50.118;8.642;2023-05-23T13:17:06;3.40;;;2.40;;
69047;SDS011;56119;50.118;8.642;2023-05-23T13:19:32;4.03;;;3.00;;
69047;SDS011;56119;50.118;8.642;2023-05-23T13:21:58;3.70;;;2.58;;
69047;SDS011;56119;50.118;8.642;2023-05-23T13:24:25;4.05;;;2.95;;
69047;SDS011;56119;50.118;8.642;2023-05-23T13:26:51;3.33;;;2.42;;
69047;SDS011;56119;50.118;8.642;2023-05-23T13:29:17;4.18;;;2.65;;
69047;SDS011;56119;50.118;8.642;2023-05-23T13:31:43;3.75;;;3.03;;
69047;SDS011;56119;50.118;8.642;2023-05-23T13:34:10;5.43;;;2.92;;
69047;SDS011;56119;50.118;8.642;2023-05-23T13:36:36;4.28;;;3.30;;
69047;SDS011;56119;50.118;8.642;2023-05-23T13:39:02;5.60;;;3.75;;
69047;SDS011;56119;50.118;8.642;2023-05-23T13:41:31;5.35;;;3.28;;
69047;SDS011;56119;50.118;8.642;2023-05-23T13:43:57;4.50;;;3.92;;
69047;SDS011;56119;50.118;8.642;2023-05-23T13:46:23;4.97;;;4.40;;
69047;SDS011;56119;50.118;8.642;2023-05-23T13:48:49;5.18;;;4.30;;
69047;SDS011;56119;50.118;8.642;2023-05-23T13:51:15;4.93;;;4.35;;
69047;SDS011;56119;50.118;8.642;2023-05-23T13:53:41;6.13;;;4.60;;
69047;SDS011;56119;50.118;8.642;2023-05-23T13:56:07;5.32;;;4.20;;
69047;SDS011;56119;50.118;8.642;2023-05-23T13:58:34;5.43;;;4.30;;
69047;SDS011;56119;50.118;8.642;2023-05-23T14:01:00;5.20;;;4.30;;
69047;SDS011;56119;50.118;8.642;2023-05-23T14:03:26;5.03;;;3.85;;
69047;SDS011;56119;50.118;8.642;2023-05-23T14:05:52;5.00;;;4.18;;
69047;SDS011;56119;50.118;8.642;2023-05-23T14:08:18;5.80;;;4.28;;
69047;SDS011;56119;50.118;8.642;2023-05-23T14:10:44;6.32;;;4.47;;
69047;SDS011;56119;50.118;8.642;2023-05-23T14:13:10;5.43;;;4.78;;
69047;SDS011;56119;50.118;8.642;2023-05-23T14:15:36;5.28;;;4.72;;
69047;SDS011;56119;50.118;8.642;2023-05-23T14:18:03;6.18;;;5.15;;
69047;SDS011;56119;50.118;8.642;2023-05-23T14:20:29;5.93;;;5.32;;
69047;SDS011;56119;50.118;8.642;2023-05-23T14:22:55;9.02;;;5.55;;
69047;SDS011;56119;50.118;8.642;2023-05-23T14:25:21;8.00;;;5.30;;
69047;SDS011;56119;50.118;8.642;2023-05-23T14:27:48;6.43;;;5.15;;
69047;SDS011;56119;50.118;8.642;2023-05-23T14:30:14;7.80;;;6.00;;
69047;SDS011;56119;50.118;8.642;2023-05-23T14:32:40;8.68;;;5.80;;
69047;SDS011;56119;50.118;8.642;2023-05-23T14:35:07;7.40;;;6.20;;
69047;SDS011;56119;50.118;8.642;2023-05-23T14:37:34;7.82;;;5.85;;
69047;SDS011;56119;50.118;8.642;2023-05-23T14:40:03;8.55;;;6.05;;
69047;SDS011;56119;50.118;8.642;2023-05-23T14:42:28;8.02;;;6.28;;
69047;SDS011;56119;50.118;8.642;2023-05-23T14:44:55;9.10;;;6.28;;
69047;SDS011;56119;50.118;8.642;2023-05-23T14:47:21;8.40;;;6.63;;
69047;SDS011;56119;50.118;8.642;2023-05-23T14:49:47;6.93;;;5.78;;
69047;SDS011;56119;50.118;8.642;2023-05-23T14:52:13;7.72;;;6.18;;
69047;SDS011;56119;50.118;8.642;2023-05-23T14:54:39;7.30;;;6.07;;